createdAt,value
2023-01-17T00:02:19.432Z,148996.25
2023-01-17T00:05:04.339Z,148976.16
2023-01-17T00:07:48.756Z,149017.59
2023-01-17T00:10:20.317Z,148986.22
2023-01-17T00:12:48.323Z,148989.97
2023-01-17T00:15:15.912Z,148993.75
2023-01-17T00:17:41.752Z,149000.00
2023-01-17T00:20:30.628Z,148991.25
2023-01-17T00:23:15.143Z,148961.06
2023-01-17T00:25:59.635Z,148969.88
2023-01-17T00:28:26.503Z,148957.31
2023-01-17T00:30:52.793Z,148957.31
2023-01-17T00:33:20.092Z,148969.88
2023-01-17T00:35:46.093Z,148974.91
2023-01-17T00:38:15.253Z,148968.63
2023-01-17T00:40:42.888Z,148966.13
2023-01-17T00:43:28.510Z,149002.56
2023-01-17T00:46:13.412Z,148989.97
2023-01-17T00:48:58.644Z,148946.00
2023-01-17T00:51:44.137Z,148951.06
2023-01-17T00:54:29.245Z,148928.41
2023-01-17T00:57:14.126Z,148918.38
2023-01-17T00:59:58.646Z,148907.06
2023-01-17T01:02:43.817Z,148899.53
2023-01-17T01:05:30.171Z,148908.31
2023-01-17T01:08:15.048Z,148915.88
2023-01-17T01:11:00.962Z,148946.00
2023-01-17T01:13:47.131Z,148878.22
2023-01-17T01:16:31.940Z,148859.38
2023-01-17T01:19:17.186Z,148844.31
2023-01-17T01:22:01.641Z,148874.41
2023-01-17T01:24:46.627Z,148845.56
2023-01-17T01:27:31.038Z,148840.50
2023-01-17T01:30:15.861Z,148854.31
2023-01-17T01:33:00.472Z,148875.66
2023-01-17T01:35:26.798Z,148858.06
2023-01-17T01:37:52.662Z,148861.88
2023-01-17T01:40:18.980Z,148856.81
2023-01-17T01:42:53.207Z,148860.63
2023-01-17T01:45:30.701Z,148874.41
2023-01-17T01:48:04.179Z,148838.00
2023-01-17T01:50:35.492Z,148854.31
2023-01-17T01:53:03.911Z,148880.72
2023-01-17T01:55:37.244Z,148860.63
2023-01-17T01:58:24.597Z,148829.22
2023-01-17T02:00:50.836Z,148825.47
2023-01-17T02:03:29.832Z,148838.00
2023-01-17T02:06:01.697Z,148821.66
2023-01-17T02:08:27.740Z,148817.91
2023-01-17T02:10:55.301Z,148850.56
2023-01-17T02:13:21.315Z,148844.31
2023-01-17T02:16:25.054Z,148858.06
2023-01-17T02:19:22.152Z,148838.00
2023-01-17T02:22:02.344Z,148853.06
2023-01-17T02:25:10.477Z,148865.63
2023-01-17T02:28:13.568Z,148820.41
2023-01-17T02:30:45.372Z,148821.66
2023-01-17T02:34:02.208Z,148829.22
2023-01-17T02:36:55.541Z,148835.50
2023-01-17T02:39:28.153Z,148814.16
2023-01-17T02:42:01.164Z,148848.06
2023-01-17T02:44:26.957Z,148831.72
2023-01-17T02:46:56.266Z,148765.19
2023-01-17T02:49:27.806Z,148790.31
2023-01-17T02:52:47.862Z,148790.31
2023-01-17T02:55:41.621Z,148821.66
2023-01-17T02:58:40.245Z,148816.66
2023-01-17T03:01:29.498Z,148844.31
2023-01-17T03:04:32.474Z,148836.75
2023-01-17T03:07:03.025Z,148775.25
2023-01-17T03:09:31.092Z,148829.22
2023-01-17T03:11:58.686Z,148851.81
2023-01-17T03:14:25.411Z,148860.63
2023-01-17T03:16:52.281Z,148802.84
2023-01-17T03:19:18.146Z,148812.91
2023-01-17T03:21:44.035Z,148785.25
2023-01-17T03:24:09.801Z,148730.03
2023-01-17T03:26:35.661Z,148777.75
2023-01-17T03:29:01.599Z,148790.31
2023-01-17T03:31:27.403Z,148781.50
2023-01-17T03:33:53.250Z,148799.06
2023-01-17T03:36:19.597Z,148767.69
2023-01-17T03:38:45.621Z,148785.25
2023-01-17T03:41:11.607Z,148797.81
2023-01-17T03:43:38.008Z,148772.72
2023-01-17T03:46:06.020Z,148777.75
2023-01-17T03:48:32.422Z,148789.06
2023-01-17T03:50:58.624Z,148780.25
2023-01-17T03:53:24.796Z,148755.16
2023-01-17T03:55:50.786Z,148786.50
2023-01-17T03:58:16.638Z,148766.44
2023-01-17T04:00:42.540Z,148746.34
2023-01-17T04:03:08.623Z,148733.84
2023-01-17T04:05:34.617Z,148752.66
2023-01-17T04:08:00.413Z,148730.03
2023-01-17T04:10:26.335Z,148742.59
2023-01-17T04:12:52.278Z,148753.91
2023-01-17T04:15:18.152Z,148774.00
2023-01-17T04:17:43.943Z,148761.41
2023-01-17T04:20:32.280Z,148780.25
2023-01-17T04:22:58.512Z,148809.13
2023-01-17T04:25:25.109Z,148753.91
2023-01-17T04:27:51.980Z,148784.00
2023-01-17T04:30:17.861Z,148761.41
2023-01-17T04:32:43.656Z,148770.22
2023-01-17T04:35:09.546Z,148726.28
2023-01-17T04:37:35.735Z,148721.28
2023-01-17T04:40:02.706Z,148692.38
2023-01-17T04:42:28.602Z,148673.56
2023-01-17T04:44:54.412Z,148714.97
2023-01-17T04:47:20.275Z,148731.28
2023-01-17T04:49:49.263Z,148711.19
2023-01-17T04:52:17.937Z,148726.28
2023-01-17T04:54:44.128Z,148721.28
2023-01-17T04:57:10.123Z,148716.25
2023-01-17T04:59:35.929Z,148728.78
2023-01-17T05:02:01.947Z,148745.09
2023-01-17T05:04:27.741Z,148766.44
2023-01-17T05:06:54.296Z,148718.75
2023-01-17T05:09:20.128Z,148722.50
2023-01-17T05:11:46.018Z,148768.94
2023-01-17T05:14:11.812Z,148722.50
2023-01-17T05:16:37.665Z,148723.78
2023-01-17T05:19:03.483Z,148777.75
2023-01-17T05:21:30.749Z,148776.50
2023-01-17T05:23:56.656Z,148723.78
2023-01-17T05:26:22.681Z,148774.00
2023-01-17T05:28:49.282Z,148774.00
2023-01-17T05:31:15.125Z,148753.91
2023-01-17T05:33:41.054Z,148772.72
2023-01-17T05:36:07.709Z,148767.69
2023-01-17T05:38:33.567Z,148787.81
2023-01-17T05:41:00.581Z,148781.50
2023-01-17T05:43:27.714Z,148795.31
2023-01-17T05:45:54.081Z,148794.06
2023-01-17T05:48:20.477Z,148792.81
2023-01-17T05:50:46.672Z,148816.66
2023-01-17T05:53:15.188Z,148810.41
2023-01-17T05:55:42.254Z,148787.81
2023-01-17T05:58:13.910Z,148736.34
2023-01-17T06:00:39.820Z,148777.75
2023-01-17T06:03:05.928Z,148763.94
2023-01-17T06:05:31.810Z,148781.50
2023-01-17T06:07:57.786Z,148766.44
2023-01-17T06:10:24.837Z,148799.06
2023-01-17T06:13:00.859Z,148746.34
2023-01-17T06:15:26.919Z,148735.09
2023-01-17T06:17:52.813Z,148757.66
2023-01-17T06:20:18.792Z,148765.19
2023-01-17T06:22:44.622Z,148775.25
2023-01-17T06:25:10.501Z,148785.25
2023-01-17T06:27:36.282Z,148787.81
2023-01-17T06:30:02.227Z,148760.16
2023-01-17T06:32:28.102Z,148781.50
2023-01-17T06:34:56.768Z,148774.00
2023-01-17T06:37:22.707Z,148722.50
2023-01-17T06:39:48.512Z,148772.72
2023-01-17T06:42:14.513Z,148774.00
2023-01-17T06:44:40.349Z,148777.75
2023-01-17T06:47:06.708Z,148733.84
2023-01-17T06:49:32.524Z,148740.09
2023-01-17T06:51:58.338Z,148761.41
2023-01-17T06:54:24.292Z,148711.19
2023-01-17T06:56:50.191Z,148730.03
2023-01-17T06:59:16.011Z,148722.50
2023-01-17T07:01:41.932Z,148722.50
2023-01-17T07:04:07.926Z,148723.78
2023-01-17T07:06:35.711Z,148748.84
2023-01-17T07:09:03.365Z,148735.09
2023-01-17T07:11:30.102Z,148682.38
2023-01-17T07:13:55.955Z,148711.19
2023-01-17T07:16:21.839Z,148717.50
2023-01-17T07:18:47.881Z,148688.63
2023-01-17T07:21:14.751Z,148692.38
2023-01-17T07:23:41.210Z,148701.19
2023-01-17T07:26:07.313Z,148731.28
2023-01-17T07:28:33.389Z,148712.44
2023-01-17T07:31:09.917Z,148726.28
2023-01-17T07:33:35.815Z,148723.78
2023-01-17T07:36:06.669Z,148663.53
2023-01-17T07:38:32.620Z,148709.94
2023-01-17T07:40:59.580Z,148692.38
2023-01-17T07:43:25.558Z,148681.13
2023-01-17T07:45:51.543Z,148682.38
2023-01-17T07:48:19.545Z,148704.94
2023-01-17T07:50:54.596Z,148716.25
2023-01-17T07:53:24.987Z,148735.09
2023-01-17T07:55:51.190Z,148727.53
2023-01-17T07:58:17.154Z,148745.09
2023-01-17T08:00:44.127Z,148781.50
2023-01-17T08:03:15.208Z,148784.00
2023-01-17T08:05:42.749Z,148786.50
2023-01-17T08:08:08.948Z,148805.38
2023-01-17T08:10:35.234Z,148782.75
2023-01-17T08:13:01.059Z,148774.00
2023-01-17T08:15:27.055Z,148812.91
2023-01-17T08:17:52.871Z,148835.50
2023-01-17T08:20:20.193Z,148832.97
2023-01-17T08:22:46.214Z,148820.41
2023-01-17T08:25:12.431Z,148750.09
2023-01-17T08:27:38.354Z,148762.66
2023-01-17T08:30:05.939Z,148711.19
2023-01-17T08:32:32.678Z,148721.28
2023-01-17T08:34:58.481Z,148741.34
2023-01-17T08:37:24.345Z,148740.09
2023-01-17T08:39:50.275Z,148730.03
2023-01-17T08:42:17.003Z,148742.59
2023-01-17T08:44:43.423Z,148732.53
2023-01-17T08:47:09.689Z,148707.44
2023-01-17T08:49:35.478Z,148781.50
2023-01-17T08:52:01.404Z,148775.25
2023-01-17T08:54:28.114Z,148801.59
2023-01-17T08:56:54.907Z,148854.31
2023-01-17T08:59:21.211Z,148888.22
2023-01-17T09:01:47.287Z,148892.00
2023-01-17T09:04:13.952Z,148918.38
2023-01-17T09:06:42.379Z,148974.91
2023-01-17T09:09:10.587Z,149039.00
2023-01-17T09:11:36.935Z,149057.84
2023-01-17T09:14:03.013Z,149081.69
2023-01-17T09:16:29.304Z,149067.88
2023-01-17T09:18:56.499Z,149108.06
2023-01-17T09:21:23.380Z,149111.88
2023-01-17T09:23:49.337Z,149022.66
2023-01-17T09:26:24.269Z,149011.34
2023-01-17T09:28:51.092Z,149005.06
2023-01-17T09:31:20.019Z,148981.16
2023-01-17T09:33:47.732Z,148968.63
2023-01-17T09:36:13.682Z,148963.59
2023-01-17T09:38:39.588Z,148939.72
2023-01-17T09:41:23.432Z,148918.38
2023-01-17T09:44:04.353Z,148915.88
2023-01-17T09:46:33.303Z,148956.06
2023-01-17T09:49:23.226Z,148923.41
2023-01-17T09:51:49.123Z,148951.06
2023-01-17T09:54:22.431Z,149027.66
2023-01-17T09:57:00.005Z,149044.00
2023-01-17T10:00:02.582Z,149081.69
2023-01-17T10:02:59.605Z,149174.69
2023-01-17T10:05:55.800Z,149272.78
2023-01-17T10:08:50.441Z,149583.50
2023-01-17T10:11:35.256Z,150464.63
2023-01-17T10:14:38.840Z,151335.53
2023-01-17T10:17:26.656Z,151216.59
2023-01-17T10:20:15.172Z,150696.97
2023-01-17T10:22:57.589Z,150486.09
2023-01-17T10:25:48.404Z,150270.25
2023-01-17T10:28:17.902Z,150108.84
2023-01-17T10:30:48.568Z,149685.50
2023-01-17T10:33:19.196Z,149744.69
2023-01-17T10:35:54.090Z,149816.47
2023-01-17T10:38:24.776Z,149724.53
2023-01-17T10:40:56.623Z,149602.41
2023-01-17T10:43:32.976Z,149690.53
2023-01-17T10:45:58.905Z,149637.66
2023-01-17T10:48:28.704Z,149711.94
2023-01-17T10:51:23.941Z,150035.72
2023-01-17T10:54:22.133Z,150549.25
2023-01-17T10:56:48.065Z,150937.09
2023-01-17T10:59:22.398Z,151742.06
2023-01-17T11:01:50.371Z,151203.91
2023-01-17T11:04:26.333Z,151026.84
2023-01-17T11:07:15.672Z,150801.84
2023-01-17T11:09:50.628Z,150294.31
2023-01-17T11:12:39.384Z,149898.38
2023-01-17T11:15:08.154Z,149589.78
2023-01-17T11:17:48.094Z,149440.06
2023-01-17T11:20:16.415Z,149323.06
2023-01-17T11:23:08.103Z,149236.31
2023-01-17T11:25:34.634Z,149148.31
2023-01-17T11:28:17.336Z,149100.56
2023-01-17T11:30:54.880Z,149111.88
2023-01-17T11:33:44.966Z,149177.19
2023-01-17T11:36:20.823Z,149271.53
2023-01-17T11:38:56.644Z,149297.91
2023-01-17T11:41:24.534Z,149281.56
2023-01-17T11:43:53.398Z,149457.66
2023-01-17T11:46:23.193Z,150168.13
2023-01-17T11:48:56.308Z,151252.00
2023-01-17T11:51:22.425Z,152152.91
2023-01-17T11:53:48.783Z,152576.88
2023-01-17T11:56:32.591Z,152620.09
2023-01-17T11:59:23.112Z,152392.75
2023-01-17T12:02:10.248Z,151680.00
2023-01-17T12:04:47.116Z,151373.56
2023-01-17T12:07:22.053Z,151016.75
2023-01-17T12:10:03.370Z,150748.78
2023-01-17T12:12:51.119Z,150358.63
2023-01-17T12:15:19.628Z,150153.00
2023-01-17T12:18:08.360Z,150251.34
2023-01-17T12:20:53.725Z,150698.25
2023-01-17T12:23:45.370Z,150674.25
2023-01-17T12:26:23.160Z,151330.44
2023-01-17T12:29:13.837Z,152259.50
2023-01-17T12:31:59.881Z,151751.00
2023-01-17T12:34:32.628Z,151400.13
2023-01-17T12:37:21.308Z,151744.56
2023-01-17T12:40:25.503Z,152260.75
2023-01-17T12:43:02.429Z,152422.00
2023-01-17T12:45:37.665Z,152651.88
2023-01-17T12:48:09.403Z,152107.22
2023-01-17T12:50:51.710Z,152060.28
2023-01-17T12:53:58.149Z,151259.59
2023-01-17T12:56:27.381Z,150918.13
2023-01-17T12:59:45.539Z,150294.31
2023-01-17T13:02:15.112Z,150092.44
2023-01-17T13:05:04.803Z,150218.53
2023-01-17T13:07:49.768Z,150130.31
2023-01-17T13:10:47.916Z,150216.03
2023-01-17T13:13:21.704Z,150372.53
2023-01-17T13:15:51.723Z,150263.97
2023-01-17T13:18:22.470Z,150145.41
2023-01-17T13:21:05.346Z,150088.66
2023-01-17T13:23:49.110Z,150110.09
2023-01-17T13:26:40.794Z,150247.56
2023-01-17T13:29:28.619Z,149924.81
2023-01-17T13:32:13.176Z,149758.53
2023-01-17T13:34:58.769Z,149534.41
2023-01-17T13:37:44.486Z,149445.06
2023-01-17T13:40:39.735Z,149396.06
2023-01-17T13:43:13.605Z,149252.69
2023-01-17T13:45:39.685Z,149201.13
2023-01-17T13:48:11.572Z,149231.25
2023-01-17T13:50:40.211Z,149217.47
2023-01-17T13:53:28.036Z,149246.34
2023-01-17T13:56:08.846Z,149255.19
2023-01-17T13:58:51.006Z,149242.59
2023-01-17T14:01:22.853Z,149230.00
2023-01-17T14:04:02.766Z,149159.59
2023-01-17T14:06:37.828Z,149168.44
2023-01-17T14:09:12.629Z,149164.66
2023-01-17T14:11:52.601Z,149104.31
2023-01-17T14:14:39.847Z,149066.63
2023-01-17T14:17:27.409Z,149071.63
2023-01-17T14:20:05.439Z,149044.00
2023-01-17T14:22:35.806Z,149031.44
2023-01-17T14:25:18.927Z,149077.94
2023-01-17T14:27:54.105Z,149067.88
2023-01-17T14:30:25.103Z,149100.56
2023-01-17T14:33:07.965Z,149041.50
2023-01-17T14:35:37.051Z,148998.75
2023-01-17T14:38:14.457Z,149047.78
2023-01-17T14:40:49.104Z,149094.28
2023-01-17T14:43:19.984Z,149111.88
2023-01-17T14:45:46.579Z,149104.31
2023-01-17T14:48:18.139Z,149103.06
2023-01-17T14:50:45.552Z,149103.06
2023-01-17T14:53:11.871Z,149031.44
2023-01-17T14:55:46.528Z,149003.81
2023-01-17T14:58:19.761Z,148986.22
2023-01-17T15:00:49.038Z,149013.84
2023-01-17T15:03:15.735Z,148998.75
2023-01-17T15:05:45.175Z,148933.47
2023-01-17T15:08:13.649Z,148959.81
2023-01-17T15:10:57.887Z,148920.88
2023-01-17T15:13:44.411Z,148918.38
2023-01-17T15:16:19.696Z,148951.06
2023-01-17T15:18:45.664Z,148972.41
2023-01-17T15:21:16.465Z,148910.81
2023-01-17T15:23:55.637Z,148935.97
2023-01-17T15:26:28.265Z,148933.47
2023-01-17T15:29:02.246Z,148925.91
2023-01-17T15:31:48.848Z,148894.53
2023-01-17T15:34:35.199Z,148902.06
2023-01-17T15:37:04.040Z,148918.38
2023-01-17T15:39:33.306Z,148860.63
2023-01-17T15:42:03.570Z,148829.22
2023-01-17T15:44:49.484Z,148832.97
2023-01-17T15:47:30.571Z,148824.22
2023-01-17T15:49:57.276Z,148827.97
2023-01-17T15:52:23.298Z,148768.94
2023-01-17T15:54:58.195Z,148780.25
2023-01-17T15:57:31.731Z,148755.16
2023-01-17T16:00:08.071Z,148732.53
2023-01-17T16:02:42.506Z,148737.59
2023-01-17T16:05:24.262Z,148755.16
2023-01-17T16:07:54.536Z,148761.41
2023-01-17T16:10:30.900Z,148750.09
2023-01-17T16:12:58.436Z,148747.59
2023-01-17T16:15:28.307Z,148751.34
2023-01-17T16:18:00.420Z,148741.34
2023-01-17T16:20:43.592Z,148713.72
2023-01-17T16:23:10.005Z,148712.44
2023-01-17T16:25:36.053Z,148699.94
2023-01-17T16:28:02.905Z,148698.69
2023-01-17T16:30:29.176Z,148689.88
2023-01-17T16:32:56.214Z,148726.28
2023-01-17T16:35:24.492Z,148699.94
2023-01-17T16:37:52.524Z,148707.44
2023-01-17T16:40:20.873Z,148682.38
2023-01-17T16:42:47.055Z,148703.69
2023-01-17T16:45:14.189Z,148694.88
2023-01-17T16:47:41.273Z,148679.81
2023-01-17T16:50:09.936Z,148678.56
2023-01-17T16:52:36.030Z,148693.63
2023-01-17T16:55:03.644Z,148671.06
2023-01-17T16:57:29.510Z,148673.56
2023-01-17T16:59:55.385Z,148682.38
2023-01-17T17:02:22.343Z,148671.06
2023-01-17T17:04:48.276Z,148648.47
2023-01-17T17:07:14.699Z,148638.41
2023-01-17T17:09:40.649Z,148630.91
2023-01-17T17:12:06.752Z,148650.97
2023-01-17T17:14:32.789Z,148638.41
2023-01-17T17:17:01.490Z,148622.09
2023-01-17T17:19:30.241Z,148608.28
2023-01-17T17:21:59.932Z,148613.34
2023-01-17T17:24:25.899Z,148605.78
2023-01-17T17:26:51.789Z,148614.59
2023-01-17T17:29:18.031Z,148574.47
2023-01-17T17:31:44.089Z,148588.22
2023-01-17T17:34:12.431Z,148615.84
2023-01-17T17:36:38.532Z,148608.28
2023-01-17T17:39:08.440Z,148574.47
2023-01-17T17:41:38.582Z,148525.53
2023-01-17T17:44:05.223Z,148528.03
2023-01-17T17:46:33.135Z,148546.84
2023-01-17T17:49:00.601Z,148544.34
2023-01-17T17:51:29.933Z,148541.84
2023-01-17T17:54:00.152Z,148560.66
2023-01-17T17:56:27.798Z,148555.66
2023-01-17T17:58:53.948Z,148555.66
2023-01-17T18:01:23.480Z,148535.53
2023-01-17T18:03:54.528Z,148544.34
2023-01-17T18:06:20.920Z,148524.28
2023-01-17T18:08:47.230Z,148511.72
2023-01-17T18:11:17.763Z,148467.84
2023-01-17T18:13:51.775Z,148475.34
2023-01-17T18:16:34.822Z,148501.72
2023-01-17T18:19:05.043Z,148521.78
2023-01-17T18:21:33.496Z,148515.47
2023-01-17T18:24:02.940Z,148500.41
2023-01-17T18:26:35.242Z,148507.97
2023-01-17T18:29:02.442Z,148515.47
2023-01-17T18:31:29.579Z,148512.97
2023-01-17T18:33:57.756Z,148536.78
2023-01-17T18:36:25.175Z,148546.84
2023-01-17T18:38:51.659Z,148500.41
2023-01-17T18:41:20.639Z,148536.78
2023-01-17T18:43:47.349Z,148489.16
2023-01-17T18:46:15.019Z,148490.41
2023-01-17T18:48:41.364Z,148486.66
2023-01-17T18:51:12.624Z,148405.13
2023-01-17T18:53:39.597Z,148439.00
2023-01-17T18:56:12.283Z,148441.50
2023-01-17T18:58:41.403Z,148433.97
2023-01-17T19:01:19.388Z,148430.19
2023-01-17T19:03:46.937Z,148447.75
2023-01-17T19:06:16.845Z,148452.78
2023-01-17T19:08:43.266Z,148481.59
2023-01-17T19:11:09.589Z,148481.59
2023-01-17T19:13:37.450Z,148457.78
2023-01-17T19:16:06.925Z,148444.00
2023-01-17T19:18:34.001Z,148427.69
2023-01-17T19:21:11.476Z,148452.78
2023-01-17T19:23:38.300Z,148403.88
2023-01-17T19:26:07.617Z,148411.38
2023-01-17T19:28:36.596Z,148418.94
2023-01-17T19:31:12.187Z,148444.00
2023-01-17T19:33:39.299Z,148435.22
2023-01-17T19:36:08.429Z,148442.72
2023-01-17T19:38:36.068Z,148402.63
2023-01-17T19:41:16.143Z,148454.03
2023-01-17T19:43:42.264Z,148417.69
2023-01-17T19:46:09.515Z,148411.38
2023-01-17T19:48:36.981Z,148393.81
2023-01-17T19:51:09.008Z,148415.19
2023-01-17T19:53:36.713Z,148442.72
2023-01-17T19:56:13.973Z,148459.03
2023-01-17T19:58:40.321Z,148437.72
2023-01-17T20:01:18.316Z,148432.72
2023-01-17T20:03:45.496Z,148425.19
2023-01-17T20:06:14.118Z,148441.50
2023-01-17T20:08:42.787Z,148455.28
2023-01-17T20:11:20.895Z,148459.03
2023-01-17T20:13:48.361Z,148467.84
2023-01-17T20:16:16.302Z,148442.72
2023-01-17T20:18:42.875Z,148436.47
2023-01-17T20:21:16.632Z,148413.94
2023-01-17T20:23:46.271Z,148391.31
2023-01-17T20:26:14.838Z,148421.44
2023-01-17T20:28:43.119Z,148422.69
2023-01-17T20:31:12.134Z,148417.69
2023-01-17T20:33:43.221Z,148395.13
2023-01-17T20:36:11.683Z,148441.50
2023-01-17T20:38:44.703Z,148413.94
2023-01-17T20:41:14.588Z,148418.94
2023-01-17T20:43:42.279Z,148421.44
2023-01-17T20:46:09.241Z,148410.13
2023-01-17T20:48:35.624Z,148385.06
2023-01-17T20:51:06.831Z,148366.28
2023-01-17T20:53:34.293Z,148393.81
2023-01-17T20:56:00.240Z,148373.78
2023-01-17T20:58:26.111Z,148329.91
2023-01-17T21:00:54.599Z,148299.81
2023-01-17T21:03:20.820Z,148344.97
2023-01-17T21:05:46.767Z,148353.72
2023-01-17T21:08:14.522Z,148342.47
2023-01-17T21:10:49.711Z,148339.91
2023-01-17T21:13:15.613Z,148311.13
2023-01-17T21:15:42.979Z,148326.16
2023-01-17T21:18:09.314Z,148338.66
2023-01-17T21:20:35.915Z,148303.56
2023-01-17T21:23:01.789Z,148319.88
2023-01-17T21:25:27.707Z,148347.47
2023-01-17T21:27:53.673Z,148326.16
2023-01-17T21:30:19.655Z,148341.22
2023-01-17T21:32:45.484Z,148312.38
2023-01-17T21:35:11.428Z,148328.66
2023-01-17T21:37:37.617Z,148314.88
2023-01-17T21:40:05.341Z,148303.56
2023-01-17T21:42:31.396Z,148309.88
2023-01-17T21:44:57.546Z,148301.06
2023-01-17T21:47:23.513Z,148307.38
2023-01-17T21:49:49.520Z,148321.13
2023-01-17T21:52:17.977Z,148303.56
2023-01-17T21:55:02.803Z,148243.44
2023-01-17T21:57:47.213Z,148248.44
2023-01-17T22:00:13.864Z,148269.72
2023-01-17T22:02:40.349Z,148274.78
2023-01-17T22:05:07.564Z,148281.03
2023-01-17T22:07:33.680Z,148250.94
2023-01-17T22:10:00.060Z,148238.44
2023-01-17T22:12:26.110Z,148272.28
2023-01-17T22:14:52.828Z,148219.66
2023-01-17T22:17:20.302Z,148235.94
2023-01-17T22:19:46.332Z,148210.84
2023-01-17T22:22:12.728Z,148219.66
2023-01-17T22:24:39.829Z,148244.69
2023-01-17T22:27:09.173Z,148279.78
2023-01-17T22:29:38.728Z,148287.28
2023-01-17T22:32:04.666Z,148303.56
2023-01-17T22:34:30.611Z,148308.63
2023-01-17T22:36:56.429Z,148324.91
2023-01-17T22:39:22.301Z,148296.06
2023-01-17T22:41:48.309Z,148263.47
2023-01-17T22:44:14.226Z,148234.69
2023-01-17T22:46:40.815Z,148228.41
2023-01-17T22:49:07.725Z,148243.44
2023-01-17T22:51:34.375Z,148258.47
2023-01-17T22:54:00.719Z,148245.94
2023-01-17T22:56:32.107Z,148250.94
2023-01-17T22:58:59.972Z,148249.69
2023-01-17T23:01:28.927Z,148272.28
2023-01-17T23:03:59.749Z,148250.94
2023-01-17T23:06:29.566Z,148238.44
2023-01-17T23:08:57.503Z,148242.19
2023-01-17T23:11:45.435Z,148220.91
2023-01-17T23:14:20.454Z,148205.84
2023-01-17T23:17:16.387Z,148200.84
2023-01-17T23:19:43.376Z,148177.03
2023-01-17T23:22:15.509Z,148180.81
2023-01-17T23:24:58.953Z,148183.31
2023-01-17T23:27:51.118Z,148156.97
2023-01-17T23:30:25.368Z,148146.97
2023-01-17T23:32:53.363Z,148172.03
2023-01-17T23:35:22.076Z,148169.53
2023-01-17T23:38:06.975Z,148163.28
2023-01-17T23:40:34.502Z,148172.03
2023-01-17T23:43:19.189Z,148136.94
2023-01-17T23:45:45.661Z,148154.47
2023-01-17T23:48:11.932Z,148154.47
2023-01-17T23:50:40.430Z,148169.53
2023-01-17T23:53:06.956Z,148154.47
2023-01-17T23:55:40.119Z,148131.94
2023-01-17T23:58:07.872Z,148116.91
